Time;durP1;ratioP1;P1;durP2;ratioP2;P2;SDS_P1;SDS_P2;PMS_P1;PMS_P2;Temp;Humidity;BMP_temperature;BMP_pressure;BME280_temperature;BME280_humidity;BME280_pressure;Samples;Min_cycle;Max_cycle;Signal;HPM_P1;HPM_P2
2022/08/16 00:00:39;;;;;;;;;;;17.50;99.90;;;;;;5003932;28;19914;-78
2022/08/16 00:03:04;;;;;;;;;;;17.60;99.90;;;;;;5009613;28;19913;-77
2022/08/16 00:05:30;;;;;;;;;;;17.70;99.90;;;;;;5003256;28;20288;-77
2022/08/16 00:07:55;;;;;;;;;;;17.70;99.90;;;;;;5025087;28;19925;-78
2022/08/16 00:10:22;;;;;;;;;;;17.70;99.90;;;;;;5005292;28;19909;-77
2022/08/16 00:12:49;;;;;;;;;;;17.60;99.90;;;;;;5024525;28;19920;-78
2022/08/16 00:15:17;;;;;;;;;;;17.60;99.90;;;;;;5024040;28;20007;-77
2022/08/16 00:17:43;;;;;;;;;;;17.50;99.90;;;;;;5016503;28;20354;-78
2022/08/16 00:20:09;;;;;;;;;;;17.50;99.90;;;;;;5024051;28;20272;-77
2022/08/16 00:22:37;;;;;;;;;;;17.50;99.90;;;;;;5022394;28;20004;-77
2022/08/16 00:25:03;;;;;;;;;;;17.50;99.90;;;;;;5017297;28;19920;-77
2022/08/16 00:27:29;;;;;;;;;;;17.50;99.90;;;;;;5018952;28;20099;-77
2022/08/16 00:29:54;;;;;;;;;;;17.50;99.90;;;;;;5021125;28;20122;-78
2022/08/16 00:32:20;;;;;;;;;;;17.50;99.90;;;;;;5021536;28;20273;-77
2022/08/16 00:34:45;;;;;;;;;;;17.50;99.90;;;;;;5023227;28;19916;-77
2022/08/16 00:37:14;;;;;;;;;;;17.50;99.90;;;;;;5021977;28;20346;-77
2022/08/16 00:39:40;;;;;;;;;;;17.50;99.90;;;;;;5023868;28;19921;-83
2022/08/16 00:42:06;;;;;;;;;;;17.50;99.90;;;;;;5019949;28;19924;-79
2022/08/16 00:44:33;;;;;;;;;;;17.60;99.90;;;;;;5024572;28;20347;-78
2022/08/16 00:47:04;;;;;;;;;;;17.50;99.90;;;;;;5010892;28;19913;-78
2022/08/16 00:49:31;;;;;;;;;;;17.60;99.90;;;;;;5027660;28;20384;-78
2022/08/16 00:51:56;;;;;;;;;;;17.60;99.90;;;;;;5023599;28;20342;-78
2022/08/16 00:54:24;;;;;;;;;;;17.60;99.90;;;;;;5021029;28;20390;-78
2022/08/16 00:56:50;;;;;;;;;;;17.60;99.90;;;;;;5024575;28;19909;-79
2022/08/16 00:59:17;;;;;;;;;;;17.60;99.90;;;;;;5020578;28;19936;-77
2022/08/16 01:01:43;;;;;;;;;;;17.60;99.90;;;;;;5003233;28;19916;-78
2022/08/16 01:04:09;;;;;;;;;;;17.50;99.90;;;;;;5008599;28;20089;-78
2022/08/16 01:06:35;;;;;;;;;;;17.50;99.90;;;;;;5021967;28;20044;-78
2022/08/16 01:09:04;;;;;;;;;;;17.40;99.90;;;;;;5003650;28;19921;-78
2022/08/16 01:11:31;;;;;;;;;;;17.40;99.90;;;;;;5004215;28;19913;-78
2022/08/16 01:13:59;;;;;;;;;;;17.30;99.90;;;;;;5013191;28;20003;-78
2022/08/16 01:16:25;;;;;;;;;;;17.20;99.90;;;;;;5021237;28;19965;-78
2022/08/16 01:18:57;;;;;;;;;;;17.20;99.90;;;;;;5008361;28;19996;-78
2022/08/16 01:21:23;;;;;;;;;;;17.10;99.90;;;;;;5021759;28;20376;-79
2022/08/16 01:23:54;;;;;;;;;;;17.10;99.90;;;;;;5021942;28;19920;-79
2022/08/16 01:26:20;;;;;;;;;;;17.10;99.90;;;;;;5023048;28;20131;-78
2022/08/16 01:28:46;;;;;;;;;;;17.10;99.90;;;;;;5023882;28;19921;-78
2022/08/16 01:31:12;;;;;;;;;;;17.10;99.90;;;;;;5020440;28;19924;-78
2022/08/16 01:33:37;;;;;;;;;;;17.10;99.90;;;;;;5016078;28;19913;-78
2022/08/16 01:36:07;;;;;;;;;;;17.10;99.90;;;;;;5021512;28;20305;-78
2022/08/16 01:38:35;;;;;;;;;;;17.10;99.90;;;;;;5020847;28;19936;-78
2022/08/16 01:41:03;;;;;;;;;;;17.10;99.90;;;;;;5023087;28;19921;-78
2022/08/16 01:43:30;;;;;;;;;;;17.10;99.90;;;;;;5023926;28;19944;-78
2022/08/16 01:45:56;;;;;;;;;;;17.10;99.90;;;;;;5007915;28;19913;-78
2022/08/16 01:48:26;;;;;;;;;;;17.20;99.90;;;;;;5018587;28;19982;-78
2022/08/16 01:50:52;;;;;;;;;;;17.20;99.90;;;;;;5011947;28;20422;-78
2022/08/16 01:53:18;;;;;;;;;;;17.20;99.90;;;;;;5023255;28;19913;-78
2022/08/16 01:55:44;;;;;;;;;;;17.30;99.90;;;;;;5021717;28;20324;-78
2022/08/16 01:58:10;;;;;;;;;;;17.30;99.90;;;;;;5020947;28;19909;-78
2022/08/16 02:00:35;;;;;;;;;;;17.30;99.90;;;;;;5020359;28;20011;-78
2022/08/16 02:03:01;;;;;;;;;;;17.20;99.90;;;;;;5021393;28;19920;-78
2022/08/16 02:05:27;;;;;;;;;;;17.20;99.90;;;;;;5017741;28;20337;-79
2022/08/16 02:07:52;;;;;;;;;;;17.20;99.90;;;;;;5010753;28;19970;-79
2022/08/16 02:10:18;;;;;;;;;;;17.20;99.90;;;;;;5020639;28;19917;-79
2022/08/16 02:12:44;;;;;;;;;;;17.20;99.90;;;;;;4998828;28;19968;-78
2022/08/16 02:15:10;;;;;;;;;;;17.10;99.90;;;;;;5017504;28;19913;-78
2022/08/16 02:17:36;;;;;;;;;;;17.10;99.90;;;;;;5021843;28;19994;-79
2022/08/16 02:20:03;;;;;;;;;;;17.10;99.90;;;;;;5021384;28;20189;-78
2022/08/16 02:22:29;;;;;;;;;;;17.10;99.90;;;;;;5021509;28;19913;-78
2022/08/16 02:24:54;;;;;;;;;;;17.10;99.90;;;;;;5021235;28;19919;-79
2022/08/16 02:27:21;;;;;;;;;;;17.10;99.90;;;;;;5005130;28;19909;-78
2022/08/16 02:29:46;;;;;;;;;;;17.10;99.90;;;;;;5020925;28;20007;-79
2022/08/16 02:32:14;;;;;;;;;;;17.00;99.90;;;;;;5020946;28;20236;-78
2022/08/16 02:34:40;;;;;;;;;;;17.00;99.90;;;;;;5022903;28;20007;-78
2022/08/16 02:37:06;;;;;;;;;;;16.90;99.90;;;;;;5020814;28;20016;-78
2022/08/16 02:39:31;;;;;;;;;;;16.80;99.90;;;;;;5022053;28;20380;-79
2022/08/16 02:41:57;;;;;;;;;;;16.70;99.90;;;;;;5018783;28;20421;-78
2022/08/16 02:44:22;;;;;;;;;;;16.70;99.90;;;;;;5022127;28;20340;-78
2022/08/16 02:46:48;;;;;;;;;;;16.60;99.90;;;;;;5016932;28;19999;-77
2022/08/16 02:49:13;;;;;;;;;;;16.50;99.90;;;;;;5015146;28;20483;-79
2022/08/16 02:51:40;;;;;;;;;;;16.50;99.90;;;;;;5011147;28;19913;-78
2022/08/16 02:54:06;;;;;;;;;;;16.40;99.90;;;;;;5021775;28;19990;-78
2022/08/16 02:56:32;;;;;;;;;;;16.30;99.90;;;;;;5023091;28;20316;-79
2022/08/16 02:58:58;;;;;;;;;;;16.20;99.90;;;;;;5018758;28;20393;-78
2022/08/16 03:01:26;;;;;;;;;;;16.20;99.90;;;;;;5025139;28;20426;-78
2022/08/16 03:03:53;;;;;;;;;;;16.20;99.90;;;;;;5022243;28;20068;-78
2022/08/16 03:06:20;;;;;;;;;;;16.30;99.90;;;;;;5019672;28;19913;-78
2022/08/16 03:08:46;;;;;;;;;;;16.30;99.90;;;;;;5022310;28;19928;-79
2022/08/16 03:11:12;;;;;;;;;;;16.40;99.90;;;;;;5021949;28;19989;-78
2022/08/16 03:13:38;;;;;;;;;;;16.40;99.90;;;;;;5018749;28;20435;-78
2022/08/16 03:16:04;;;;;;;;;;;16.50;99.90;;;;;;5011645;28;19920;-79
2022/08/16 03:18:29;;;;;;;;;;;16.60;99.90;;;;;;5016478;28;19913;-79
2022/08/16 03:20:55;;;;;;;;;;;16.60;99.90;;;;;;5018255;28;19912;-78
2022/08/16 03:23:21;;;;;;;;;;;16.70;99.90;;;;;;5018626;28;19920;-79
2022/08/16 03:25:47;;;;;;;;;;;16.80;99.90;;;;;;5013207;28;20327;-78
2022/08/16 03:28:13;;;;;;;;;;;16.80;99.90;;;;;;5018373;28;19917;-78
2022/08/16 03:30:39;;;;;;;;;;;16.70;99.90;;;;;;5017920;28;19920;-78
2022/08/16 03:33:04;;;;;;;;;;;16.80;99.90;;;;;;5012587;28;19913;-79
2022/08/16 03:35:31;;;;;;;;;;;16.70;99.90;;;;;;5020591;28;19913;-78
2022/08/16 03:37:59;;;;;;;;;;;16.70;99.90;;;;;;5012098;28;20381;-79
2022/08/16 03:40:25;;;;;;;;;;;16.70;99.90;;;;;;5004779;28;19948;-79
2022/08/16 03:42:50;;;;;;;;;;;16.70;99.90;;;;;;5020374;28;19921;-78
2022/08/16 03:45:16;;;;;;;;;;;16.70;99.90;;;;;;5018384;28;19924;-77
2022/08/16 03:47:44;;;;;;;;;;;16.80;99.90;;;;;;5018647;28;19972;-78
2022/08/16 03:50:09;;;;;;;;;;;16.80;99.90;;;;;;5012228;28;19917;-78
2022/08/16 03:52:35;;;;;;;;;;;16.80;99.90;;;;;;5018928;28;19913;-79
2022/08/16 03:55:02;;;;;;;;;;;16.80;99.90;;;;;;5017957;28;19919;-78
2022/08/16 03:57:28;;;;;;;;;;;16.80;99.90;;;;;;5015813;28;19913;-78
2022/08/16 03:59:54;;;;;;;;;;;16.80;99.90;;;;;;5020974;28;20287;-78
2022/08/16 04:02:20;;;;;;;;;;;16.80;99.90;;;;;;5499883;22;19926;-72
2022/08/16 04:04:45;;;;;;;;;;;16.70;99.90;;;;;;4998127;28;19966;-70
2022/08/16 04:07:11;;;;;;;;;;;16.70;99.90;;;;;;5003614;28;19920;-70
2022/08/16 04:09:37;;;;;;;;;;;16.60;99.90;;;;;;5013618;28;20478;-70
2022/08/16 04:12:03;;;;;;;;;;;16.60;99.90;;;;;;5013378;28;19913;-70
2022/08/16 04:14:29;;;;;;;;;;;16.60;99.90;;;;;;5014581;28;19909;-70
2022/08/16 04:16:55;;;;;;;;;;;16.50;99.90;;;;;;5013052;28;20438;-70
2022/08/16 04:19:22;;;;;;;;;;;16.60;99.90;;;;;;5012648;28;20403;-70
2022/08/16 04:21:47;;;;;;;;;;;16.60;99.90;;;;;;5011643;28;19967;-70
2022/08/16 04:24:13;;;;;;;;;;;16.50;99.90;;;;;;5014474;28;19921;-70
2022/08/16 04:26:39;;;;;;;;;;;16.50;99.90;;;;;;5014053;28;20061;-70
2022/08/16 04:29:04;;;;;;;;;;;16.40;99.90;;;;;;5017606;28;20075;-70
2022/08/16 04:31:30;;;;;;;;;;;16.40;99.90;;;;;;5007347;28;20396;-70
2022/08/16 04:33:58;;;;;;;;;;;16.40;99.90;;;;;;5008631;28;19917;-70
2022/08/16 04:36:24;;;;;;;;;;;16.50;99.90;;;;;;5026064;28;20457;-70
2022/08/16 04:38:50;;;;;;;;;;;16.50;99.90;;;;;;5023581;28;19913;-71
2022/08/16 04:41:16;;;;;;;;;;;16.50;99.90;;;;;;5007810;28;20020;-71
2022/08/16 04:43:42;;;;;;;;;;;16.50;99.90;;;;;;5015778;28;20003;-71
2022/08/16 04:46:08;;;;;;;;;;;16.40;99.90;;;;;;5021137;28;19913;-70
2022/08/16 04:48:34;;;;;;;;;;;16.40;99.90;;;;;;5022700;28;19917;-70
2022/08/16 04:50:59;;;;;;;;;;;16.40;99.90;;;;;;5021292;28;19917;-70
2022/08/16 04:53:25;;;;;;;;;;;16.40;99.90;;;;;;5016744;28;19909;-70
2022/08/16 04:55:50;;;;;;;;;;;16.40;99.90;;;;;;5015310;28;19913;-70
2022/08/16 04:58:16;;;;;;;;;;;16.50;99.90;;;;;;5010659;28;19987;-70
2022/08/16 05:00:41;;;;;;;;;;;16.50;99.90;;;;;;5012172;28;19913;-70
2022/08/16 05:03:09;;;;;;;;;;;16.50;99.90;;;;;;5022528;28;19924;-70
2022/08/16 05:05:37;;;;;;;;;;;16.50;99.90;;;;;;5017427;28;19951;-70
2022/08/16 05:08:03;;;;;;;;;;;16.50;99.90;;;;;;5023225;28;20131;-70
2022/08/16 05:10:29;;;;;;;;;;;16.50;99.90;;;;;;5028453;28;19912;-70
2022/08/16 05:12:55;;;;;;;;;;;16.50;99.90;;;;;;5026687;28;20393;-70
2022/08/16 05:15:21;;;;;;;;;;;16.60;99.90;;;;;;5030719;28;19912;-70
2022/08/16 05:17:47;;;;;;;;;;;16.60;99.90;;;;;;5029421;28;19909;-70
2022/08/16 05:20:13;;;;;;;;;;;16.60;99.90;;;;;;5013304;28;20437;-70
2022/08/16 05:22:38;;;;;;;;;;;16.70;99.90;;;;;;5013984;28;20384;-71
2022/08/16 05:25:05;;;;;;;;;;;16.70;99.90;;;;;;5019257;28;19925;-70
2022/08/16 05:27:31;;;;;;;;;;;16.70;99.90;;;;;;5014033;28;19917;-70
2022/08/16 05:29:56;;;;;;;;;;;16.70;99.90;;;;;;5026891;28;19913;-71
2022/08/16 05:32:22;;;;;;;;;;;16.70;99.90;;;;;;5021893;28;20488;-70
2022/08/16 05:34:47;;;;;;;;;;;16.70;99.90;;;;;;5027973;28;20305;-70
2022/08/16 05:37:13;;;;;;;;;;;16.70;99.90;;;;;;5028978;28;20873;-70
2022/08/16 05:39:38;;;;;;;;;;;16.70;99.90;;;;;;5031246;28;20367;-70
2022/08/16 05:42:04;;;;;;;;;;;16.70;99.90;;;;;;5026835;28;19920;-71
2022/08/16 05:44:30;;;;;;;;;;;16.80;99.90;;;;;;5031882;28;20249;-66
2022/08/16 05:46:56;;;;;;;;;;;16.80;99.90;;;;;;5011432;28;20026;-67
2022/08/16 05:49:23;;;;;;;;;;;16.80;99.90;;;;;;5035009;28;20015;-67
2022/08/16 05:51:48;;;;;;;;;;;16.90;99.90;;;;;;5019413;28;19909;-66
2022/08/16 05:54:17;;;;;;;;;;;16.90;99.90;;;;;;5006231;28;19920;-67
2022/08/16 05:56:44;;;;;;;;;;;16.90;99.90;;;;;;5011375;28;19909;-67
2022/08/16 05:59:10;;;;;;;;;;;16.90;99.90;;;;;;5020934;28;19913;-66
2022/08/16 06:01:36;;;;;;;;;;;17.00;99.90;;;;;;5014853;28;19936;-67
2022/08/16 06:04:02;;;;;;;;;;;17.00;99.90;;;;;;5025214;28;19928;-67
2022/08/16 06:48:56;;;;;;;;;;;17.90;99.90;;;;;;5079210;27;20291;-69
2022/08/16 06:51:21;;;;;;;;;;;18.00;99.90;;;;;;5077899;28;19970;-70
2022/08/16 06:53:47;;;;;;;;;;;18.20;99.90;;;;;;5081278;28;20048;-70
2022/08/16 06:56:12;;;;;;;;;;;18.40;99.90;;;;;;5090703;28;20415;-69
2022/08/16 06:58:38;;;;;;;;;;;18.40;99.90;;;;;;5093098;28;20405;-70
2022/08/16 07:01:03;;;;;;;;;;;18.40;99.90;;;;;;5093690;28;19923;-70
2022/08/16 07:03:29;;;;;;;;;;;18.50;99.90;;;;;;5087188;28;19923;-70
2022/08/16 07:05:55;;;;;;;;;;;18.50;99.90;;;;;;5085047;28;20226;-70
2022/08/16 07:08:22;;;;;;;;;;;18.60;99.90;;;;;;5073846;28;19935;-70
2022/08/16 07:10:48;;;;;;;;;;;18.70;99.90;;;;;;5080759;28;20117;-70
2022/08/16 07:13:14;;;;;;;;;;;18.80;99.90;;;;;;5102849;27;20452;-69
2022/08/16 07:15:41;;;;;;;;;;;18.90;99.90;;;;;;5083299;27;20695;-70
2022/08/16 07:18:06;;;;;;;;;;;19.00;99.90;;;;;;5083250;28;20052;-69
2022/08/16 07:20:32;;;;;;;;;;;19.20;99.90;;;;;;5079693;28;19916;-70
2022/08/16 07:22:57;;;;;;;;;;;19.30;99.90;;;;;;5078467;28;20074;-69
2022/08/16 07:25:23;;;;;;;;;;;19.40;99.90;;;;;;5075416;28;20259;-70
2022/08/16 07:39:02;;;;;;;;;;;19.40;99.90;;;;;;4712356;27;10002241;-70
2022/08/16 07:41:28;;;;;;;;;;;19.60;99.90;;;;;;5061315;28;19935;-69
2022/08/16 07:43:53;;;;;;;;;;;19.60;99.90;;;;;;5058135;28;20219;-70
2022/08/16 07:46:19;;;;;;;;;;;19.60;99.90;;;;;;5061274;28;20713;-71
2022/08/16 07:48:45;;;;;;;;;;;19.60;99.90;;;;;;5063341;28;19920;-71
2022/08/16 07:51:10;;;;;;;;;;;19.50;99.90;;;;;;5067239;28;19917;-71
2022/08/16 09:12:38;;;;;;;;;;;19.20;99.90;;;;;;4666501;27;10001949;-75
2022/08/16 09:15:04;;;;;;;;;;;19.90;99.90;;;;;;5083106;28;19916;-74
2022/08/16 09:17:30;;;;;;;;;;;20.20;99.90;;;;;;5083878;28;19969;-74
2022/08/16 09:19:56;;;;;;;;;;;20.30;99.90;;;;;;5079155;28;19916;-74
2022/08/16 09:22:22;;;;;;;;;;;20.60;99.90;;;;;;5082737;28;19921;-74
2022/08/16 09:24:49;;;;;;;;;;;21.20;99.90;;;;;;5078931;28;19998;-74
2022/08/16 09:27:14;;;;;;;;;;;21.90;99.90;;;;;;5070207;28;19984;-74
2022/08/16 09:29:40;;;;;;;;;;;22.50;99.90;;;;;;5076662;28;20408;-74
2022/08/16 09:32:05;;;;;;;;;;;22.90;99.90;;;;;;5086110;28;19958;-74
2022/08/16 09:34:32;;;;;;;;;;;23.00;99.90;;;;;;5065937;28;20321;-74
2022/08/16 09:36:57;;;;;;;;;;;23.00;99.90;;;;;;5078724;28;19920;-74
2022/08/16 09:39:24;;;;;;;;;;;23.50;99.90;;;;;;5075459;28;19922;-72
2022/08/16 09:41:50;;;;;;;;;;;23.70;99.90;;;;;;5075342;28;20242;-75
2022/08/16 09:44:19;;;;;;;;;;;23.70;99.90;;;;;;5072799;28;19990;-73
2022/08/16 09:46:45;;;;;;;;;;;23.30;99.90;;;;;;5069957;28;19924;-74
2022/08/16 09:49:11;;;;;;;;;;;22.70;99.90;;;;;;5064188;28;19928;-74
2022/08/16 09:51:36;;;;;;;;;;;22.20;99.90;;;;;;5062955;28;19990;-76
2022/08/16 09:54:03;;;;;;;;;;;21.40;99.90;;;;;;5078284;28;20025;-76
2022/08/16 09:56:30;;;;;;;;;;;21.10;99.90;;;;;;5076616;28;20011;-77
2022/08/16 09:58:56;;;;;;;;;;;20.60;99.90;;;;;;5076622;28;20213;-76
2022/08/16 10:01:23;;;;;;;;;;;20.20;99.90;;;;;;5081388;28;19920;-76
2022/08/16 10:03:50;;;;;;;;;;;20.00;99.90;;;;;;5070577;28;20054;-77
2022/08/16 10:06:16;;;;;;;;;;;19.80;99.90;;;;;;5073927;28;19920;-77
2022/08/16 10:08:41;;;;;;;;;;;19.50;99.90;;;;;;5080659;28;20158;-77
2022/08/16 10:24:52;;;;;;;;;;;19.30;99.90;;;;;;5077323;27;20365;-72
2022/08/16 10:27:19;;;;;;;;;;;19.00;99.90;;;;;;5077312;28;19917;-71
2022/08/16 10:29:45;;;;;;;;;;;19.40;99.90;;;;;;5067430;28;19923;-74
2022/08/16 10:32:11;;;;;;;;;;;20.00;99.90;;;;;;5075261;28;19932;-72
2022/08/16 10:34:36;;;;;;;;;;;20.70;99.90;;;;;;5071897;28;20290;-70
2022/08/16 10:37:02;;;;;;;;;;;21.40;99.90;;;;;;5062987;28;20015;-70
2022/08/16 10:39:28;;;;;;;;;;;21.80;99.90;;;;;;5057294;28;20351;-70
2022/08/16 10:41:53;;;;;;;;;;;22.00;99.90;;;;;;5066531;28;19916;-70
2022/08/16 10:44:19;;;;;;;;;;;22.00;99.90;;;;;;5074679;28;20408;-71
2022/08/16 10:46:45;;;;;;;;;;;22.20;99.90;;;;;;5082509;28;19916;-71
2022/08/16 10:49:11;;;;;;;;;;;22.30;99.90;;;;;;5064116;28;19923;-70
2022/08/16 10:51:38;;;;;;;;;;;22.20;99.90;;;;;;5069209;28;20319;-70
2022/08/16 10:54:04;;;;;;;;;;;22.10;99.90;;;;;;5069504;28;20422;-70
2022/08/16 10:56:30;;;;;;;;;;;21.90;99.90;;;;;;5091612;28;20031;-70
2022/08/16 10:58:57;;;;;;;;;;;22.20;99.90;;;;;;5095855;28;19947;-70
2022/08/16 11:01:24;;;;;;;;;;;22.70;99.90;;;;;;5083075;28;21267;-70
2022/08/16 11:03:50;;;;;;;;;;;22.70;99.90;;;;;;5069745;28;19920;-70
2022/08/16 11:06:16;;;;;;;;;;;23.30;99.90;;;;;;5068347;28;19924;-70
2022/08/16 11:08:42;;;;;;;;;;;23.80;99.90;;;;;;5066867;28;19920;-70
2022/08/16 11:11:08;;;;;;;;;;;24.50;99.90;;;;;;5065471;28;19993;-70
2022/08/16 11:13:34;;;;;;;;;;;24.80;99.90;;;;;;5067221;28;20178;-70
2022/08/16 11:15:59;;;;;;;;;;;25.30;99.90;;;;;;5065910;28;20027;-70
2022/08/16 11:18:28;;;;;;;;;;;25.40;99.90;;;;;;5072208;28;19944;-70
2022/08/16 11:20:55;;;;;;;;;;;25.30;99.90;;;;;;5069702;28;19939;-70
2022/08/16 11:23:20;;;;;;;;;;;24.80;99.90;;;;;;5072747;28;19924;-69
2022/08/16 11:25:47;;;;;;;;;;;24.30;99.90;;;;;;5060700;28;19916;-69
2022/08/16 11:28:13;;;;;;;;;;;24.10;99.90;;;;;;5051736;28;20359;-69
2022/08/16 11:30:39;;;;;;;;;;;23.90;99.90;;;;;;5059340;28;20343;-69
2022/08/16 11:33:05;;;;;;;;;;;23.70;99.90;;;;;;5059181;28;19989;-69
2022/08/16 11:35:31;;;;;;;;;;;23.90;99.90;;;;;;5052400;28;19924;-69
2022/08/16 11:38:02;;;;;;;;;;;24.10;99.90;;;;;;5054419;28;19916;-69
2022/08/16 11:40:30;;;;;;;;;;;24.10;99.90;;;;;;5057128;28;19916;-69
2022/08/16 11:42:56;;;;;;;;;;;24.10;99.90;;;;;;5065211;28;19917;-70
2022/08/16 11:45:22;;;;;;;;;;;23.90;99.90;;;;;;5053926;28;20386;-69
2022/08/16 11:47:48;;;;;;;;;;;23.60;99.90;;;;;;5048310;28;19939;-70
2022/08/16 11:50:13;;;;;;;;;;;23.50;99.90;;;;;;5050937;28;19961;-70
2022/08/16 11:52:39;;;;;;;;;;;23.30;99.90;;;;;;5053007;28;20342;-69
2022/08/16 11:55:06;;;;;;;;;;;23.40;99.90;;;;;;5052821;28;20475;-70
2022/08/16 11:57:31;;;;;;;;;;;23.60;99.90;;;;;;5056154;28;19988;-69
2022/08/16 11:59:57;;;;;;;;;;;23.60;99.90;;;;;;5054912;28;19997;-69
2022/08/16 12:02:22;;;;;;;;;;;23.40;99.90;;;;;;5072270;23;19986;-71
2022/08/16 12:04:48;;;;;;;;;;;23.20;99.90;;;;;;5045367;28;20015;-71
2022/08/16 12:07:13;;;;;;;;;;;23.10;99.90;;;;;;5047582;28;20340;-71
2022/08/16 12:09:39;;;;;;;;;;;23.10;99.90;;;;;;5048594;28;20304;-71
2022/08/16 12:12:05;;;;;;;;;;;23.00;99.90;;;;;;5048863;28;20003;-71
2022/08/16 12:14:31;;;;;;;;;;;23.00;99.90;;;;;;4337342;28;10000655;-71
2022/08/16 12:16:57;;;;;;;;;;;23.00;99.90;;;;;;5040750;28;20004;-71
2022/08/16 12:19:23;;;;;;;;;;;23.00;99.90;;;;;;5057558;28;19966;-71
2022/08/16 12:21:49;;;;;;;;;;;23.00;99.90;;;;;;5048526;28;20021;-71
2022/08/16 12:24:14;;;;;;;;;;;23.00;99.90;;;;;;5050749;28;20375;-72
2022/08/16 12:26:40;;;;;;;;;;;23.00;99.90;;;;;;5049023;28;19939;-73
2022/08/16 12:29:06;;;;;;;;;;;22.70;99.90;;;;;;5033455;28;20433;-72
2022/08/16 12:31:31;;;;;;;;;;;22.40;99.90;;;;;;5050423;28;19998;-71
2022/08/16 12:33:57;;;;;;;;;;;22.20;99.90;;;;;;5050699;28;19981;-71
2022/08/16 12:36:23;;;;;;;;;;;22.10;99.90;;;;;;5049206;28;19927;-71
2022/08/16 12:38:49;;;;;;;;;;;21.90;99.90;;;;;;5025196;28;19985;-72
2022/08/16 12:41:15;;;;;;;;;;;21.90;99.90;;;;;;5047925;28;19927;-70
2022/08/16 12:43:41;;;;;;;;;;;22.00;99.90;;;;;;5028620;28;19916;-72
2022/08/16 12:46:08;;;;;;;;;;;22.10;99.90;;;;;;5043706;28;20029;-71
2022/08/16 12:51:20;;;;;;;;;;;22.40;99.90;;;;;;5041494;28;20715;-67
2022/08/16 12:53:52;;;;;;;;;;;22.60;99.90;;;;;;5044687;28;20446;-67
2022/08/16 12:56:18;;;;;;;;;;;22.60;99.90;;;;;;5043406;28;20292;-66
2022/08/16 12:58:49;;;;;;;;;;;22.60;99.90;;;;;;5050922;28;19923;-66
2022/08/16 13:01:15;;;;;;;;;;;22.60;99.90;;;;;;5051327;28;19920;-67
2022/08/16 13:03:42;;;;;;;;;;;22.70;99.90;;;;;;5052164;28;19955;-66
2022/08/16 13:06:07;;;;;;;;;;;23.00;99.90;;;;;;5048636;28;19925;-66
2022/08/16 13:08:33;;;;;;;;;;;23.50;99.90;;;;;;5044871;28;19928;-67
2022/08/16 13:10:59;;;;;;;;;;;23.80;99.90;;;;;;5041648;28;19970;-66
2022/08/16 13:13:25;;;;;;;;;;;24.00;99.90;;;;;;5026500;28;20133;-67
2022/08/16 13:15:56;;;;;;;;;;;24.00;99.90;;;;;;5041359;28;19935;-67
2022/08/16 13:18:22;;;;;;;;;;;24.10;99.90;;;;;;5041369;28;19916;-67
2022/08/16 13:20:47;;;;;;;;;;;24.20;99.90;;;;;;5042987;28;19921;-67
2022/08/16 13:23:14;;;;;;;;;;;24.30;99.90;;;;;;5039875;28;20035;-67
2022/08/16 13:25:40;;;;;;;;;;;24.30;99.90;;;;;;5023651;28;19948;-67
2022/08/16 13:28:06;;;;;;;;;;;24.10;99.90;;;;;;5044440;28;19921;-67
2022/08/16 13:30:34;;;;;;;;;;;24.10;99.90;;;;;;5037880;28;19920;-66
2022/08/16 13:32:59;;;;;;;;;;;24.00;99.90;;;;;;5040594;28;19975;-66
2022/08/16 13:35:25;;;;;;;;;;;23.80;99.90;;;;;;5042560;28;20007;-67
2022/08/16 13:37:51;;;;;;;;;;;23.70;99.90;;;;;;5040724;28;19928;-66
2022/08/16 13:40:17;;;;;;;;;;;23.60;99.90;;;;;;5045584;28;19916;-66
2022/08/16 13:42:43;;;;;;;;;;;23.40;99.90;;;;;;5045247;28;19951;-66
2022/08/16 13:45:10;;;;;;;;;;;23.10;99.90;;;;;;5049609;28;19938;-67
2022/08/16 13:47:35;;;;;;;;;;;22.80;99.90;;;;;;5049066;28;19916;-67
2022/08/16 13:50:01;;;;;;;;;;;22.40;99.90;;;;;;5048129;28;20373;-66
2022/08/16 13:52:27;;;;;;;;;;;22.20;99.90;;;;;;5042500;28;19998;-67
2022/08/16 13:54:53;;;;;;;;;;;21.80;99.90;;;;;;5042063;28;20019;-67
2022/08/16 13:57:18;;;;;;;;;;;21.80;99.90;;;;;;5042259;28;20361;-66
2022/08/16 13:59:44;;;;;;;;;;;21.70;99.90;;;;;;5045701;28;19938;-66
2022/08/16 14:02:10;;;;;;;;;;;21.50;99.90;;;;;;5047816;28;19977;-66
2022/08/16 14:04:37;;;;;;;;;;;21.50;99.90;;;;;;5054763;28;20015;-66
2022/08/16 14:07:03;;;;;;;;;;;21.60;99.90;;;;;;5048123;28;19917;-66
2022/08/16 14:09:29;;;;;;;;;;;21.70;99.90;;;;;;5048041;28;19916;-66
2022/08/16 14:11:56;;;;;;;;;;;21.80;99.90;;;;;;5051877;28;20750;-65
2022/08/16 14:14:21;;;;;;;;;;;21.90;99.90;;;;;;5053173;28;19947;-68
2022/08/16 14:16:47;;;;;;;;;;;22.00;99.90;;;;;;5055051;28;20589;-68
2022/08/16 14:19:17;;;;;;;;;;;21.90;99.90;;;;;;5053982;28;19916;-68
2022/08/16 14:21:46;;;;;;;;;;;21.70;99.90;;;;;;5035924;28;19921;-68
2022/08/16 14:24:13;;;;;;;;;;;21.60;99.90;;;;;;5051332;28;20000;-68
2022/08/16 14:26:42;;;;;;;;;;;21.40;99.90;;;;;;5054929;28;19916;-68
2022/08/16 14:29:08;;;;;;;;;;;21.30;99.90;;;;;;5054147;28;20403;-68
2022/08/16 14:31:34;;;;;;;;;;;21.40;99.90;;;;;;5050937;28;19948;-68
2022/08/16 14:33:59;;;;;;;;;;;21.40;99.90;;;;;;5049747;28;19966;-68
2022/08/16 14:36:25;;;;;;;;;;;21.40;99.90;;;;;;5055252;28;19919;-69
2022/08/16 14:38:50;;;;;;;;;;;21.50;99.90;;;;;;5052522;28;19962;-69
2022/08/16 14:41:16;;;;;;;;;;;21.50;99.90;;;;;;5057296;28;19995;-68
2022/08/16 14:43:41;;;;;;;;;;;21.40;99.90;;;;;;5055170;28;19917;-65
2022/08/16 14:46:07;;;;;;;;;;;21.30;99.90;;;;;;5037165;28;19919;-68
2022/08/16 14:48:32;;;;;;;;;;;21.20;99.90;;;;;;5042687;28;20018;-68
2022/08/16 14:50:58;;;;;;;;;;;21.20;99.90;;;;;;5039501;28;20751;-68
2022/08/16 14:53:24;;;;;;;;;;;21.30;99.90;;;;;;5041613;28;20065;-68
2022/08/16 14:55:50;;;;;;;;;;;21.30;99.90;;;;;;5046974;28;19916;-67
2022/08/16 14:58:16;;;;;;;;;;;21.40;99.90;;;;;;5047798;28;19931;-68
2022/08/16 15:00:42;;;;;;;;;;;21.60;99.90;;;;;;5046785;28;20027;-66
2022/08/16 15:03:09;;;;;;;;;;;21.70;99.90;;;;;;5036878;28;20287;-67
2022/08/16 15:05:35;;;;;;;;;;;21.80;99.90;;;;;;5043934;28;19921;-67
2022/08/16 15:08:00;;;;;;;;;;;22.00;99.90;;;;;;5043602;28;19921;-67
2022/08/16 15:10:26;;;;;;;;;;;22.10;99.90;;;;;;5045115;28;19921;-67
2022/08/16 15:12:57;;;;;;;;;;;22.20;99.90;;;;;;5044733;28;19940;-67
2022/08/16 15:15:24;;;;;;;;;;;22.30;99.90;;;;;;5040916;28;20348;-67
2022/08/16 15:17:49;;;;;;;;;;;22.40;99.90;;;;;;5041085;28;19920;-67
2022/08/16 15:20:15;;;;;;;;;;;22.40;99.90;;;;;;5042940;28;19943;-67
2022/08/16 15:22:45;;;;;;;;;;;22.40;99.90;;;;;;5038832;28;19937;-68
2022/08/16 15:25:12;;;;;;;;;;;22.40;99.90;;;;;;5038053;28;20875;-68
2022/08/16 15:27:40;;;;;;;;;;;22.30;99.90;;;;;;5042167;28;20015;-67
2022/08/16 15:30:10;;;;;;;;;;;22.30;99.90;;;;;;5042116;28;19974;-67
2022/08/16 15:32:36;;;;;;;;;;;22.40;99.90;;;;;;5038331;28;19987;-67
2022/08/16 15:35:02;;;;;;;;;;;22.40;99.90;;;;;;5042107;28;20762;-67
2022/08/16 15:37:29;;;;;;;;;;;22.50;99.90;;;;;;5041360;28;19920;-67
2022/08/16 15:39:54;;;;;;;;;;;22.80;99.90;;;;;;5044585;28;19927;-67
2022/08/16 15:42:20;;;;;;;;;;;23.10;99.90;;;;;;5047205;28;19920;-67
2022/08/16 15:44:45;;;;;;;;;;;23.50;99.90;;;;;;5044282;28;19920;-67
2022/08/16 15:47:13;;;;;;;;;;;23.60;99.90;;;;;;5039746;28;19916;-67
2022/08/16 15:49:41;;;;;;;;;;;23.70;99.90;;;;;;5045905;28;19916;-67
2022/08/16 15:52:07;;;;;;;;;;;23.70;99.90;;;;;;5042087;28;20411;-67
2022/08/16 15:54:33;;;;;;;;;;;23.80;99.90;;;;;;5041817;28;19974;-67
2022/08/16 15:56:58;;;;;;;;;;;23.60;99.90;;;;;;5041649;28;20528;-67
2022/08/16 15:59:24;;;;;;;;;;;23.50;99.90;;;;;;5038633;28;19917;-67
2022/08/16 16:01:50;;;;;;;;;;;23.20;99.90;;;;;;5040380;28;19966;-67
2022/08/16 16:04:16;;;;;;;;;;;22.90;99.90;;;;;;5046628;28;19920;-67
2022/08/16 16:06:47;;;;;;;;;;;22.80;99.90;;;;;;5040420;28;19916;-68
2022/08/16 16:09:17;;;;;;;;;;;22.80;99.90;;;;;;5043460;28;19916;-68
2022/08/16 16:11:43;;;;;;;;;;;22.90;99.90;;;;;;5042833;28;19958;-68
2022/08/16 16:14:09;;;;;;;;;;;23.30;99.90;;;;;;5040211;28;19925;-68
2022/08/16 16:16:35;;;;;;;;;;;23.40;99.90;;;;;;5041455;28;20547;-68
2022/08/16 16:19:00;;;;;;;;;;;23.60;99.90;;;;;;5044028;28;19916;-68
2022/08/16 16:21:26;;;;;;;;;;;23.60;99.90;;;;;;5040676;28;19921;-67
2022/08/16 16:23:52;;;;;;;;;;;23.50;99.90;;;;;;5048273;28;19921;-67
2022/08/16 16:26:17;;;;;;;;;;;23.30;99.90;;;;;;5032187;28;19920;-68
2022/08/16 16:28:44;;;;;;;;;;;23.20;99.90;;;;;;5045941;28;19921;-68
2022/08/16 16:31:11;;;;;;;;;;;23.10;99.90;;;;;;5047991;28;19951;-68
2022/08/16 16:33:38;;;;;;;;;;;22.90;99.90;;;;;;5046176;28;19924;-68
2022/08/16 16:36:04;;;;;;;;;;;22.90;99.90;;;;;;5042963;28;20310;-68
2022/08/16 16:38:30;;;;;;;;;;;22.60;99.90;;;;;;5046269;28;19951;-74